Ravia, Oklahoma
Current Conditions -  °F | °C
As of 7:55 AM on Thursday 27 Nov 2014 (Local Time) from KADM Reporting Station
Clear Clear  
Wind Chill: 26°   Ceiling: Unl
Heat Index: 32°   Visibility: 10mi
Dew Point: 28°   Wind: 6mph
Humidity: 87%   Direction: 360°N
Pressure: 30.54"   Gusts: NA
Location:  34.24°N, 96.75°W
Report Text: KADM 271355Z 36005KT 10SM SKC 00/M02 A3054
Loading
Personal Weather Stations






























Interactive Weather Map New forecast layout! Learn more

10-Day Weather Forecast

Advertisements
Track Severe Weather on mobile